createdAt,value
2016-12-12T00:00:00.938Z,8.1
2016-12-12T00:01:00.830Z,8.04
2016-12-12T00:02:00.740Z,8.06
2016-12-12T00:03:00.808Z,8.12
2016-12-12T00:04:00.954Z,8.09
2016-12-12T00:05:00.893Z,8.1
2016-12-12T00:06:03.950Z,8.13
2016-12-12T00:07:00.831Z,8.12
2016-12-12T00:08:00.883Z,8.12
2016-12-12T00:09:00.803Z,8.06
2016-12-12T00:10:00.799Z,8.03
2016-12-12T00:11:00.772Z,8.04
2016-12-12T00:12:00.869Z,8
2016-12-12T00:13:00.780Z,8.07
2016-12-12T00:14:00.837Z,8.03
2016-12-12T00:15:00.783Z,8.04
2016-12-12T00:16:00.942Z,8.03
2016-12-12T00:17:00.817Z,8.03
2016-12-12T00:18:00.953Z,8.03
2016-12-12T00:19:00.861Z,8.02
2016-12-12T00:20:00.837Z,8.03
2016-12-12T00:21:00.770Z,8
2016-12-12T00:22:00.939Z,7.96
2016-12-12T00:23:00.836Z,7.96
2016-12-12T00:24:00.804Z,7.99
2016-12-12T00:25:00.878Z,7.94
2016-12-12T00:26:00.808Z,7.92
2016-12-12T00:27:10.752Z,7.95
2016-12-12T00:28:00.935Z,8.07
2016-12-12T00:29:00.917Z,7.96
2016-12-12T00:30:00.819Z,7.95
2016-12-12T00:31:00.901Z,7.96
2016-12-12T00:32:00.854Z,7.91
2016-12-12T00:33:00.950Z,7.96
2016-12-12T00:34:00.798Z,7.95
2016-12-12T00:35:00.973Z,7.99
2016-12-12T00:36:00.850Z,7.94
2016-12-12T00:37:00.895Z,7.91
2016-12-12T00:38:00.850Z,7.96
2016-12-12T00:39:00.826Z,7.91
2016-12-12T00:40:00.954Z,7.95
2016-12-12T00:41:00.800Z,7.95
2016-12-12T00:42:00.836Z,7.94
2016-12-12T00:43:00.888Z,7.95
2016-12-12T00:44:00.887Z,7.96
2016-12-12T00:45:00.832Z,7.86
2016-12-12T00:46:00.856Z,7.95
2016-12-12T00:47:00.897Z,7.94
2016-12-12T00:48:00.902Z,7.91
2016-12-12T00:49:01.471Z,7.92
2016-12-12T00:50:00.864Z,7.94
2016-12-12T00:51:01.073Z,7.94
2016-12-12T00:52:01.145Z,8
2016-12-12T00:53:01.016Z,7.86
2016-12-12T00:54:02.015Z,7.85
2016-12-12T00:55:00.992Z,7.88
2016-12-12T00:56:00.876Z,7.91
2016-12-12T00:57:00.801Z,7.89
2016-12-12T00:58:00.803Z,7.91
2016-12-12T00:59:00.826Z,7.96
2016-12-12T01:00:00.882Z,7.92
2016-12-12T01:01:00.812Z,7.91
2016-12-12T01:02:00.833Z,7.89
2016-12-12T01:03:00.834Z,7.94
2016-12-12T01:04:00.893Z,7.92
2016-12-12T01:05:00.876Z,7.89
2016-12-12T01:06:00.921Z,7.88
2016-12-12T01:07:00.933Z,7.89
2016-12-12T01:08:01.095Z,7.82
2016-12-12T01:09:00.907Z,7.86
2016-12-12T01:10:00.868Z,7.88
2016-12-12T01:11:00.875Z,7.81
2016-12-12T01:12:00.826Z,7.86
2016-12-12T01:13:00.867Z,7.91
2016-12-12T01:14:00.940Z,7.86
2016-12-12T01:15:00.999Z,7.91
2016-12-12T01:16:00.953Z,7.88
2016-12-12T01:17:00.862Z,7.82
2016-12-12T01:18:00.951Z,7.94
2016-12-12T01:19:00.916Z,7.94
2016-12-12T01:20:00.917Z,7.84
2016-12-12T01:21:00.914Z,7.86
2016-12-12T01:22:00.930Z,7.82
2016-12-12T01:23:00.996Z,7.84
2016-12-12T01:24:00.869Z,7.85
2016-12-12T01:25:00.973Z,7.79
2016-12-12T01:26:00.963Z,7.82
2016-12-12T01:27:00.886Z,7.84
2016-12-12T01:28:00.928Z,7.77
2016-12-12T01:29:00.983Z,7.82
2016-12-12T01:30:00.897Z,7.81
2016-12-12T01:31:00.852Z,7.89
2016-12-12T01:32:00.835Z,7.77
2016-12-12T01:33:00.947Z,7.85
2016-12-12T01:34:00.886Z,7.82
2016-12-12T01:35:00.989Z,7.82
2016-12-12T01:36:00.958Z,7.77
2016-12-12T01:37:00.986Z,7.85
2016-12-12T01:38:00.897Z,7.86
2016-12-12T01:39:00.905Z,7.86
2016-12-12T01:40:00.854Z,7.85
2016-12-12T01:41:00.997Z,7.77
2016-12-12T01:42:00.846Z,7.86
2016-12-12T01:43:00.885Z,7.82
2016-12-12T01:44:00.974Z,7.82
2016-12-12T01:45:00.902Z,7.74
2016-12-12T01:46:00.910Z,7.81
2016-12-12T01:47:00.916Z,7.71
2016-12-12T01:48:00.955Z,7.77
2016-12-12T01:49:00.977Z,7.79
2016-12-12T01:50:00.952Z,7.7
2016-12-12T01:51:00.937Z,7.74
2016-12-12T01:52:00.976Z,7.74
2016-12-12T01:53:01.015Z,7.67
2016-12-12T01:54:00.995Z,7.73
2016-12-12T01:55:01.091Z,7.71
2016-12-12T01:56:01.163Z,7.62
2016-12-12T01:57:00.986Z,7.67
2016-12-12T01:58:00.890Z,7.67
2016-12-12T01:59:00.975Z,7.66
2016-12-12T02:00:01.031Z,7.73
2016-12-12T02:01:00.941Z,7.7
2016-12-12T02:02:00.877Z,7.69
2016-12-12T02:03:00.968Z,7.74
2016-12-12T02:04:00.881Z,7.62
2016-12-12T02:05:00.874Z,7.67
2016-12-12T02:06:00.917Z,7.7
2016-12-12T02:07:00.989Z,7.67
2016-12-12T02:08:00.936Z,7.62
2016-12-12T02:09:00.993Z,7.63
2016-12-12T02:10:01.006Z,7.63
2016-12-12T02:11:00.922Z,7.66
2016-12-12T02:12:00.980Z,7.57
2016-12-12T02:13:00.886Z,7.58
2016-12-12T02:14:00.913Z,7.57
2016-12-12T02:15:01.046Z,7.6
2016-12-12T02:16:00.979Z,7.69
2016-12-12T02:17:01.069Z,7.54
2016-12-12T02:18:00.934Z,7.67
2016-12-12T02:19:01.071Z,7.74
2016-12-12T02:20:00.940Z,7.58
2016-12-12T02:21:01.055Z,7.7
2016-12-12T02:22:00.973Z,7.7
2016-12-12T02:23:00.886Z,7.74
2016-12-12T02:24:02.327Z,7.73
2016-12-12T02:25:00.926Z,7.7
2016-12-12T02:26:00.969Z,7.71
2016-12-12T02:27:00.895Z,7.55
2016-12-12T02:28:01.040Z,7.69
2016-12-12T02:29:00.905Z,7.54
2016-12-12T02:30:01.020Z,7.7
2016-12-12T02:31:00.898Z,7.71
2016-12-12T02:32:00.977Z,7.62
2016-12-12T02:33:00.945Z,7.58
2016-12-12T02:34:00.917Z,7.74
2016-12-12T02:35:00.943Z,7.74
2016-12-12T02:36:00.997Z,7.79
2016-12-12T02:37:01.027Z,7.67
2016-12-12T02:38:00.858Z,7.77
2016-12-12T02:39:00.949Z,7.71
2016-12-12T02:40:01.016Z,7.73
2016-12-12T02:41:00.999Z,7.71
2016-12-12T02:42:01.045Z,7.67
2016-12-12T02:43:01.114Z,7.69
2016-12-12T02:44:01.069Z,7.77
2016-12-12T02:45:01.067Z,7.79
2016-12-12T02:46:00.959Z,7.74
2016-12-12T02:47:01.031Z,7.73
2016-12-12T02:48:01.258Z,7.62
2016-12-12T02:49:00.949Z,7.79
2016-12-12T02:50:00.935Z,7.79
2016-12-12T02:51:01.045Z,7.74
2016-12-12T02:52:01.058Z,7.73
2016-12-12T02:53:01.118Z,7.74
2016-12-12T02:54:00.967Z,7.76
2016-12-12T02:55:01.031Z,7.79
2016-12-12T02:56:01.025Z,7.85
2016-12-12T02:57:01.029Z,7.79
2016-12-12T02:58:00.968Z,7.82
2016-12-12T02:59:01.055Z,7.73
2016-12-12T03:00:01.037Z,7.92
2016-12-12T03:01:01.020Z,7.89
2016-12-12T03:02:01.068Z,7.74
2016-12-12T03:03:00.957Z,7.85
2016-12-12T03:04:00.960Z,7.79
2016-12-12T03:05:01.103Z,7.85
2016-12-12T03:06:00.898Z,7.85
2016-12-12T03:07:00.967Z,7.82
2016-12-12T03:08:00.937Z,7.85
2016-12-12T03:09:01.088Z,7.86
2016-12-12T03:10:01.013Z,7.82
2016-12-12T03:11:01.053Z,7.85
2016-12-12T03:12:00.957Z,7.88
2016-12-12T03:13:01.098Z,7.85
2016-12-12T03:14:00.998Z,7.91
2016-12-12T03:15:01.117Z,7.92
2016-12-12T03:16:01.018Z,7.82
2016-12-12T03:17:00.988Z,7.92
2016-12-12T03:18:01.059Z,7.89
2016-12-12T03:19:00.907Z,7.85
2016-12-12T03:20:01.145Z,7.92
2016-12-12T03:21:01.068Z,7.89
2016-12-12T03:22:00.965Z,7.81
2016-12-12T03:23:00.989Z,7.81
2016-12-12T03:24:01.004Z,7.85
2016-12-12T03:25:00.995Z,7.95
2016-12-12T03:26:01.047Z,7.84
2016-12-12T03:27:01.004Z,7.94
2016-12-12T03:28:02.097Z,7.91
2016-12-12T03:29:01.107Z,7.91
2016-12-12T03:30:01.006Z,7.92
2016-12-12T03:31:01.059Z,7.91
2016-12-12T03:32:00.956Z,7.88
2016-12-12T03:33:01.095Z,7.85
2016-12-12T03:34:01.048Z,7.91
2016-12-12T03:35:01.128Z,7.82
2016-12-12T03:36:00.963Z,7.82
2016-12-12T03:37:00.998Z,7.86
2016-12-12T03:38:01.044Z,7.94
2016-12-12T03:39:00.975Z,7.89
2016-12-12T03:40:00.998Z,7.91
2016-12-12T03:41:01.040Z,7.88
2016-12-12T03:42:01.111Z,7.89
2016-12-12T03:43:00.971Z,7.88
2016-12-12T03:44:00.977Z,7.86
2016-12-12T03:45:01.085Z,7.89
2016-12-12T03:46:00.990Z,7.89
2016-12-12T03:47:01.081Z,7.91
2016-12-12T03:48:00.986Z,7.89
2016-12-12T03:49:00.975Z,7.85
2016-12-12T03:50:00.986Z,7.91
2016-12-12T03:51:01.104Z,7.84
2016-12-12T03:52:01.079Z,7.96
2016-12-12T03:53:01.163Z,7.88
2016-12-12T03:54:01.087Z,7.85
2016-12-12T03:55:01.177Z,7.81
2016-12-12T03:56:01.018Z,7.81
2016-12-12T03:57:01.049Z,7.91
2016-12-12T03:58:01.107Z,7.88
2016-12-12T03:59:01.077Z,7.77
2016-12-12T04:00:01.037Z,7.91
2016-12-12T04:01:01.052Z,7.82
2016-12-12T04:02:01.006Z,7.85
2016-12-12T04:03:00.975Z,7.85
2016-12-12T04:04:01.004Z,7.85
2016-12-12T04:05:01.120Z,7.88
2016-12-12T04:06:01.099Z,7.86
2016-12-12T04:07:01.032Z,7.85
2016-12-12T04:08:01.056Z,7.85
2016-12-12T04:09:01.021Z,7.85
2016-12-12T04:10:01.107Z,7.84
2016-12-12T04:11:01.107Z,7.85
2016-12-12T04:12:01.092Z,7.84
2016-12-12T04:13:01.310Z,7.84
2016-12-12T04:14:01.115Z,7.82
2016-12-12T04:15:01.068Z,7.73
2016-12-12T04:16:00.995Z,7.73
2016-12-12T04:17:01.057Z,7.74
2016-12-12T04:18:01.134Z,7.81
2016-12-12T04:19:01.025Z,7.73
2016-12-12T04:20:01.065Z,7.79
2016-12-12T04:21:01.146Z,7.73
2016-12-12T04:22:01.087Z,7.76
2016-12-12T04:23:01.161Z,7.74
2016-12-12T04:24:01.164Z,7.66
2016-12-12T04:25:02.046Z,7.69
2016-12-12T04:26:01.036Z,7.73
2016-12-12T04:27:01.196Z,7.69
2016-12-12T04:28:01.075Z,7.67
2016-12-12T04:29:01.088Z,7.81
2016-12-12T04:30:01.137Z,7.73
2016-12-12T04:31:01.109Z,7.71
2016-12-12T04:32:01.066Z,7.73
2016-12-12T04:33:01.197Z,7.63
2016-12-12T04:34:01.107Z,7.71
2016-12-12T04:35:01.163Z,7.7
2016-12-12T04:36:01.059Z,7.71
2016-12-12T04:37:01.069Z,7.63
2016-12-12T04:38:01.078Z,7.62
2016-12-12T04:39:01.049Z,7.63
2016-12-12T04:40:01.134Z,7.62
2016-12-12T04:41:01.076Z,7.55
2016-12-12T04:42:00.986Z,7.63
2016-12-12T04:43:01.037Z,7.55
2016-12-12T04:44:01.082Z,7.69
2016-12-12T04:45:01.104Z,7.6
2016-12-12T04:46:01.077Z,7.69
2016-12-12T04:47:01.063Z,7.58
2016-12-12T04:48:01.116Z,7.66
2016-12-12T04:49:11.065Z,7.69
2016-12-12T04:50:01.140Z,7.58
2016-12-12T04:51:01.062Z,7.7
2016-12-12T04:52:01.172Z,7.62
2016-12-12T04:53:01.803Z,7.62
2016-12-12T04:54:01.146Z,7.58
2016-12-12T04:55:01.130Z,7.58
2016-12-12T04:56:01.065Z,7.62
2016-12-12T04:57:01.044Z,7.57
2016-12-12T04:58:01.126Z,7.6
2016-12-12T04:59:01.123Z,7.51
2016-12-12T05:00:01.104Z,7.58
2016-12-12T05:01:01.083Z,7.62
2016-12-12T05:02:01.053Z,7.54
2016-12-12T05:03:01.065Z,7.57
2016-12-12T05:04:01.102Z,7.5
2016-12-12T05:05:01.107Z,7.52
2016-12-12T05:06:01.122Z,7.62
2016-12-12T05:07:01.133Z,7.63
2016-12-12T05:08:01.074Z,7.58
2016-12-12T05:09:01.091Z,7.6
2016-12-12T05:10:01.084Z,7.62
2016-12-12T05:11:01.224Z,7.62
2016-12-12T05:12:01.103Z,7.58
2016-12-12T05:13:01.294Z,7.66
2016-12-12T05:14:01.101Z,7.66
2016-12-12T05:15:01.157Z,7.63
2016-12-12T05:16:01.122Z,7.62
2016-12-12T05:17:01.201Z,7.6
2016-12-12T05:18:01.067Z,7.58
2016-12-12T05:19:01.151Z,7.55
2016-12-12T05:20:01.133Z,7.58
2016-12-12T05:21:01.187Z,7.76
2016-12-12T05:22:01.115Z,7.73
2016-12-12T05:23:01.117Z,7.58
2016-12-12T05:24:01.183Z,7.63
2016-12-12T05:25:01.129Z,7.69
2016-12-12T05:26:01.210Z,7.58
2016-12-12T05:27:01.143Z,7.58
2016-12-12T05:28:01.823Z,7.62
2016-12-12T05:29:01.132Z,7.66
2016-12-12T05:30:01.104Z,7.66
2016-12-12T05:31:01.204Z,7.7
2016-12-12T05:32:01.158Z,7.74
2016-12-12T05:33:01.272Z,7.7
2016-12-12T05:34:01.133Z,7.74
2016-12-12T05:35:01.235Z,7.67
2016-12-12T05:36:01.090Z,7.67
2016-12-12T05:37:01.185Z,7.74
2016-12-12T05:38:01.124Z,7.69
2016-12-12T05:39:01.243Z,7.67
2016-12-12T05:40:01.283Z,7.7
2016-12-12T05:41:01.204Z,7.66
2016-12-12T05:42:01.177Z,7.66
2016-12-12T05:43:01.134Z,7.74
2016-12-12T05:44:01.119Z,7.73
2016-12-12T05:45:01.243Z,7.73
2016-12-12T05:46:01.105Z,7.7
2016-12-12T05:47:01.217Z,7.76
2016-12-12T05:48:01.205Z,7.69
2016-12-12T05:49:01.200Z,7.71
2016-12-12T05:50:01.134Z,7.79
2016-12-12T05:51:01.222Z,7.79
2016-12-12T05:52:01.633Z,7.81
2016-12-12T05:53:01.114Z,7.73
2016-12-12T05:54:01.175Z,7.69
2016-12-12T05:55:01.223Z,7.7
2016-12-12T05:56:01.170Z,7.79
2016-12-12T05:57:01.233Z,7.81
2016-12-12T05:58:01.182Z,7.77
2016-12-12T05:59:01.101Z,7.76
2016-12-12T06:00:01.170Z,7.77
2016-12-12T06:01:01.290Z,7.77
2016-12-12T06:02:01.773Z,7.85
2016-12-12T06:03:01.164Z,7.91
2016-12-12T06:04:01.181Z,7.85
2016-12-12T06:05:01.443Z,7.85
2016-12-12T06:06:01.213Z,7.88
2016-12-12T06:07:01.263Z,7.82
2016-12-12T06:08:01.204Z,7.84
2016-12-12T06:09:01.192Z,7.81
2016-12-12T06:10:01.265Z,7.85
2016-12-12T06:11:01.297Z,7.88
2016-12-12T06:12:01.195Z,7.85
2016-12-12T06:13:06.174Z,7.84
2016-12-12T06:14:01.299Z,7.82
2016-12-12T06:15:01.305Z,7.86
2016-12-12T06:16:01.234Z,7.91
2016-12-12T06:17:01.285Z,7.85
2016-12-12T06:18:01.192Z,7.94
2016-12-12T06:19:01.175Z,7.79
2016-12-12T06:20:01.218Z,7.85
2016-12-12T06:21:01.938Z,7.82
2016-12-12T06:22:01.225Z,7.91
2016-12-12T06:23:01.204Z,7.84
2016-12-12T06:24:01.855Z,7.84
2016-12-12T06:25:01.226Z,7.86
2016-12-12T06:26:01.133Z,7.91
2016-12-12T06:27:01.353Z,7.86
2016-12-12T06:28:01.165Z,7.89
2016-12-12T06:29:02.269Z,7.88
2016-12-12T06:30:01.198Z,7.91
2016-12-12T06:31:01.244Z,7.95
2016-12-12T06:32:01.185Z,7.89
2016-12-12T06:33:01.308Z,7.94
2016-12-12T06:34:01.154Z,7.88
2016-12-12T06:35:01.709Z,7.88
2016-12-12T06:36:01.174Z,7.89
2016-12-12T06:37:01.225Z,7.88
2016-12-12T06:38:01.216Z,7.89
2016-12-12T06:39:01.327Z,7.85
2016-12-12T06:40:01.295Z,7.92
2016-12-12T06:41:01.326Z,7.91
2016-12-12T06:42:01.269Z,7.88
2016-12-12T06:43:01.296Z,7.91
2016-12-12T06:44:01.227Z,7.92
2016-12-12T06:45:01.261Z,7.95
2016-12-12T06:46:01.248Z,7.94
2016-12-12T06:47:01.300Z,7.92
2016-12-12T06:48:01.258Z,7.95
2016-12-12T06:49:01.306Z,7.89
2016-12-12T06:50:01.215Z,7.91
2016-12-12T06:51:01.376Z,7.85
2016-12-12T06:52:01.256Z,7.92
2016-12-12T06:53:01.351Z,7.89
2016-12-12T06:54:01.256Z,7.88
2016-12-12T06:55:01.349Z,7.99
2016-12-12T06:56:01.225Z,7.92
2016-12-12T06:57:01.297Z,7.89
2016-12-12T06:58:01.305Z,7.86
2016-12-12T06:59:01.376Z,7.92
2016-12-12T07:00:01.354Z,7.92
2016-12-12T07:01:01.380Z,7.91
2016-12-12T07:02:01.258Z,7.89
2016-12-12T07:03:01.281Z,7.91
2016-12-12T07:04:01.246Z,7.96
2016-12-12T07:05:01.378Z,7.94
2016-12-12T07:06:01.237Z,7.91
2016-12-12T07:07:01.253Z,7.92
2016-12-12T07:08:01.253Z,7.91
2016-12-12T07:09:01.306Z,7.88
2016-12-12T07:10:01.313Z,7.95
2016-12-12T07:11:01.295Z,7.88
2016-12-12T07:12:01.306Z,7.89
2016-12-12T07:13:01.296Z,7.94
2016-12-12T07:14:01.246Z,7.86
2016-12-12T07:15:04.105Z,7.89
2016-12-12T07:16:01.265Z,7.91
2016-12-12T07:17:01.346Z,7.92
2016-12-12T07:18:01.242Z,7.92
2016-12-12T07:19:01.269Z,7.88
2016-12-12T07:20:01.306Z,7.91
2016-12-12T07:21:01.350Z,7.91
2016-12-12T07:22:01.290Z,7.94
2016-12-12T07:23:01.391Z,7.92
2016-12-12T07:24:01.216Z,7.86
2016-12-12T07:25:01.420Z,7.91
2016-12-12T07:26:01.259Z,7.92
2016-12-12T07:27:01.296Z,7.92
2016-12-12T07:28:01.266Z,7.91
2016-12-12T07:29:01.392Z,7.88
2016-12-12T07:30:01.262Z,7.94
2016-12-12T07:31:01.291Z,7.91
2016-12-12T07:32:01.276Z,7.91
2016-12-12T07:33:01.325Z,7.94
2016-12-12T07:34:01.255Z,7.94
2016-12-12T07:35:01.349Z,7.99
2016-12-12T07:36:01.261Z,7.91
2016-12-12T07:37:01.318Z,7.88
2016-12-12T07:38:01.286Z,7.96
2016-12-12T07:39:01.460Z,7.92
2016-12-12T07:40:01.367Z,7.92
2016-12-12T07:41:01.431Z,7.96
2016-12-12T07:42:01.300Z,7.96
2016-12-12T07:43:01.375Z,7.95
2016-12-12T07:44:01.289Z,7.94
2016-12-12T07:45:01.367Z,7.92
2016-12-12T07:46:01.271Z,8
2016-12-12T07:47:01.298Z,8.09
2016-12-12T07:48:01.281Z,8.09
2016-12-12T07:49:01.255Z,8.02
2016-12-12T07:50:11.386Z,8.06
2016-12-12T07:51:01.347Z,8.03
2016-12-12T07:52:01.318Z,8.17
2016-12-12T07:53:01.445Z,8.09
2016-12-12T07:54:01.314Z,8.07
2016-12-12T07:55:01.455Z,8.07
2016-12-12T07:56:01.345Z,8.18
2016-12-12T07:57:01.305Z,8.14
2016-12-12T07:58:01.387Z,8.17
2016-12-12T07:59:01.346Z,8.14
2016-12-12T08:00:01.316Z,8.17
2016-12-12T08:01:01.471Z,8.17
2016-12-12T08:02:01.319Z,8.2
2016-12-12T08:03:01.437Z,8.27
2016-12-12T08:04:01.321Z,8.27
2016-12-12T08:05:01.547Z,8.2
2016-12-12T08:06:01.359Z,8.22
2016-12-12T08:07:02.526Z,8.25
2016-12-12T08:08:01.345Z,8.34
2016-12-12T08:09:01.559Z,8.31
2016-12-12T08:10:01.295Z,8.37
2016-12-12T08:11:01.515Z,8.31
2016-12-12T08:12:01.323Z,8.43
2016-12-12T08:13:01.430Z,8.34
2016-12-12T08:14:01.325Z,8.39
2016-12-12T08:15:01.350Z,8.37
2016-12-12T08:16:01.389Z,8.34
2016-12-12T08:17:01.374Z,8.37
2016-12-12T08:18:01.320Z,8.4
2016-12-12T08:19:01.499Z,8.43
2016-12-12T08:20:01.336Z,8.52
2016-12-12T08:21:01.433Z,8.42
2016-12-12T08:22:01.337Z,8.46
2016-12-12T08:23:01.364Z,8.49
2016-12-12T08:24:01.353Z,8.52
2016-12-12T08:25:01.369Z,8.42
2016-12-12T08:26:01.284Z,8.43
2016-12-12T08:27:01.429Z,8.45
2016-12-12T08:28:01.326Z,8.49
2016-12-12T08:29:01.479Z,8.4
2016-12-12T08:30:01.396Z,8.45
2016-12-12T08:31:01.486Z,8.47
2016-12-12T08:32:01.471Z,8.46
2016-12-12T08:33:01.607Z,8.57
2016-12-12T08:34:01.317Z,8.45
2016-12-12T08:35:01.428Z,8.45
2016-12-12T08:36:01.373Z,8.54
2016-12-12T08:37:02.101Z,8.54
2016-12-12T08:38:01.347Z,8.57
2016-12-12T08:39:01.376Z,8.54
2016-12-12T08:40:01.529Z,8.58
2016-12-12T08:41:01.455Z,8.54
2016-12-12T08:42:01.427Z,8.57
2016-12-12T08:43:11.423Z,8.6
2016-12-12T08:44:01.363Z,8.58
2016-12-12T08:45:01.395Z,8.65
2016-12-12T08:46:01.374Z,8.73
2016-12-12T08:47:01.457Z,8.73
2016-12-12T08:48:01.380Z,8.68
2016-12-12T08:49:01.505Z,8.76
2016-12-12T08:50:01.417Z,8.79
2016-12-12T08:51:01.377Z,8.8
2016-12-12T08:52:01.375Z,8.82
2016-12-12T08:53:01.368Z,8.73
2016-12-12T08:54:01.427Z,8.8
2016-12-12T08:55:01.409Z,8.89
2016-12-12T08:56:01.404Z,8.94
2016-12-12T08:57:01.513Z,8.94
2016-12-12T08:58:01.338Z,8.97
2016-12-12T08:59:01.501Z,8.94
2016-12-12T09:00:01.415Z,9
2016-12-12T09:01:01.600Z,8.96
2016-12-12T09:02:01.335Z,9.03
2016-12-12T09:03:01.406Z,9.1
2016-12-12T09:04:01.909Z,9.08
2016-12-12T09:05:01.426Z,9.06
2016-12-12T09:06:01.380Z,9.15
2016-12-12T09:07:01.495Z,9.12
2016-12-12T09:08:01.385Z,9.13
2016-12-12T09:09:01.513Z,9.13
2016-12-12T09:10:01.448Z,9.15
2016-12-12T09:11:01.400Z,9.15
2016-12-12T09:12:01.685Z,9.2
2016-12-12T09:13:01.411Z,9.2
2016-12-12T09:14:01.404Z,9.17
2016-12-12T09:15:01.527Z,9.2
2016-12-12T09:16:01.386Z,9.16
2016-12-12T09:17:01.483Z,9.17
2016-12-12T09:18:01.415Z,9.16
2016-12-12T09:19:01.426Z,9.13
2016-12-12T09:20:01.406Z,9.16
2016-12-12T09:21:01.386Z,9.17
2016-12-12T09:22:01.400Z,9.19
2016-12-12T09:23:01.531Z,9.16
2016-12-12T09:24:01.364Z,9.19
2016-12-12T09:25:01.493Z,9.24
2016-12-12T09:26:02.448Z,9.26
2016-12-12T09:27:01.446Z,9.23
2016-12-12T09:28:01.417Z,9.31
2016-12-12T09:29:01.518Z,9.19
2016-12-12T09:30:01.486Z,9.24
2016-12-12T09:31:01.417Z,9.17
2016-12-12T09:32:01.406Z,9.26
2016-12-12T09:33:01.393Z,9.3
2016-12-12T09:34:01.424Z,9.32
2016-12-12T09:35:01.446Z,9.32
2016-12-12T09:36:01.441Z,9.3
2016-12-12T09:37:02.066Z,9.2
2016-12-12T09:38:01.496Z,9.27
2016-12-12T09:39:01.597Z,9.27
2016-12-12T09:40:01.536Z,9.37
2016-12-12T09:41:01.597Z,9.27
2016-12-12T09:42:01.436Z,9.35
2016-12-12T09:43:01.487Z,9.31
2016-12-12T09:44:01.505Z,9.31
2016-12-12T09:45:01.514Z,9.31
2016-12-12T09:46:01.469Z,9.34
2016-12-12T09:47:01.476Z,9.3
2016-12-12T09:48:01.506Z,9.32
2016-12-12T09:49:01.637Z,9.3
2016-12-12T09:50:01.456Z,9.32
2016-12-12T09:51:01.511Z,9.32
2016-12-12T09:52:01.457Z,9.32
2016-12-12T09:53:01.686Z,9.32
2016-12-12T09:54:01.487Z,9.3
2016-12-12T09:55:01.776Z,9.32
2016-12-12T09:56:01.444Z,9.31
2016-12-12T09:57:01.469Z,9.35
2016-12-12T09:58:01.484Z,9.34
2016-12-12T09:59:01.449Z,9.24
2016-12-12T10:00:01.457Z,9.32
2016-12-12T10:01:01.587Z,9.26
2016-12-12T10:02:01.498Z,9.26
2016-12-12T10:03:01.480Z,9.22
2016-12-12T10:04:01.500Z,9.16
2016-12-12T10:05:01.501Z,9.2
2016-12-12T10:06:01.422Z,9.16
2016-12-12T10:07:01.488Z,9.23
2016-12-12T10:08:01.496Z,9.19
2016-12-12T10:09:01.496Z,9.19
2016-12-12T10:10:01.548Z,9.23
2016-12-12T10:11:01.495Z,9.16
2016-12-12T10:12:01.440Z,9.19
2016-12-12T10:13:01.706Z,9.23
2016-12-12T10:14:01.494Z,9.26
2016-12-12T10:15:01.617Z,9.31
2016-12-12T10:16:01.511Z,9.24
2016-12-12T10:17:01.637Z,9.22
2016-12-12T10:18:01.543Z,9.2
2016-12-12T10:19:01.490Z,9.19
2016-12-12T10:20:01.423Z,9.23
2016-12-12T10:21:01.473Z,9.24
2016-12-12T10:22:01.478Z,9.13
2016-12-12T10:23:01.587Z,9.31
2016-12-12T10:24:01.496Z,9.42
2016-12-12T10:25:02.609Z,9.3
2016-12-12T10:26:01.486Z,9.34
2016-12-12T10:27:01.534Z,9.31
2016-12-12T10:28:01.584Z,9.32
2016-12-12T10:29:01.679Z,9.3
2016-12-12T10:30:01.536Z,9.26
2016-12-12T10:31:01.531Z,9.32
2016-12-12T10:32:01.523Z,9.32
2016-12-12T10:33:01.584Z,9.41
2016-12-12T10:34:01.609Z,9.49
2016-12-12T10:35:01.690Z,9.44
2016-12-12T10:36:01.621Z,9.45
2016-12-12T10:37:01.584Z,9.44
2016-12-12T10:38:01.537Z,9.58
2016-12-12T10:39:01.524Z,9.56
2016-12-12T10:40:01.665Z,9.44
2016-12-12T10:41:01.703Z,9.48
2016-12-12T10:42:01.553Z,9.32
2016-12-12T10:43:01.559Z,9.42
2016-12-12T10:44:01.593Z,9.41
2016-12-12T10:45:01.760Z,9.32
2016-12-12T10:46:01.577Z,9.26
2016-12-12T10:47:01.573Z,9.3
2016-12-12T10:48:01.504Z,9.41
2016-12-12T10:49:01.558Z,9.24
2016-12-12T10:50:01.598Z,9.3
2016-12-12T10:51:01.569Z,9.17
2016-12-12T10:52:01.631Z,9.23
2016-12-12T10:53:01.568Z,9.37
2016-12-12T10:54:01.553Z,9.35
2016-12-12T10:55:01.658Z,9.37
2016-12-12T10:56:01.607Z,9.34
2016-12-12T10:57:01.581Z,9.31
2016-12-12T10:58:01.542Z,9.31
2016-12-12T10:59:01.600Z,9.23
2016-12-12T11:00:01.617Z,9.16
2016-12-12T11:01:01.566Z,9.23
2016-12-12T11:02:01.571Z,9.17
2016-12-12T11:03:01.658Z,9.15
2016-12-12T11:04:01.574Z,9.08
2016-12-12T11:05:01.647Z,9.2
2016-12-12T11:06:01.561Z,9.19
2016-12-12T11:07:01.627Z,9.17
2016-12-12T11:08:01.556Z,9.08
2016-12-12T11:09:01.628Z,9.16
2016-12-12T11:10:01.655Z,9.1
2016-12-12T11:11:01.674Z,9.15
2016-12-12T11:12:01.800Z,9.23
2016-12-12T11:13:01.711Z,9.16
2016-12-12T11:14:01.631Z,9.17
2016-12-12T11:15:01.652Z,9.23
2016-12-12T11:16:01.542Z,9.23
2016-12-12T11:17:01.626Z,9.19
2016-12-12T11:18:01.573Z,9.2
2016-12-12T11:19:01.648Z,9.24
2016-12-12T11:20:01.598Z,9.27
2016-12-12T11:21:01.656Z,9.26
2016-12-12T11:22:01.644Z,9.26
2016-12-12T11:23:02.207Z,9.35
2016-12-12T11:24:01.608Z,9.26
2016-12-12T11:25:01.755Z,9.3
2016-12-12T11:26:01.646Z,9.24
2016-12-12T11:27:01.777Z,9.35
2016-12-12T11:28:01.649Z,9.37
2016-12-12T11:29:01.674Z,9.35
2016-12-12T11:30:01.580Z,9.4
2016-12-12T11:31:01.695Z,9.45
2016-12-12T11:32:01.603Z,9.45
2016-12-12T11:33:01.724Z,9.48
2016-12-12T11:34:01.607Z,9.5
2016-12-12T11:35:01.716Z,9.59
2016-12-12T11:36:02.246Z,9.67
2016-12-12T11:37:01.613Z,9.65
2016-12-12T11:38:01.670Z,9.59
2016-12-12T11:39:01.633Z,9.68
2016-12-12T11:40:01.645Z,9.81
2016-12-12T11:41:01.769Z,9.89
2016-12-12T11:42:01.617Z,9.98
2016-12-12T11:43:01.629Z,10.01
2016-12-12T11:44:03.050Z,10.04
2016-12-12T11:45:01.796Z,10.01
2016-12-12T11:46:01.706Z,10.01
2016-12-12T11:47:01.870Z,9.96
2016-12-12T11:48:01.716Z,9.89
2016-12-12T11:49:01.763Z,9.88
2016-12-12T11:50:01.709Z,10.07
2016-12-12T11:51:01.621Z,10.14
2016-12-12T11:52:01.741Z,10.17
2016-12-12T11:53:01.627Z,9.99
2016-12-12T11:54:01.716Z,9.98
2016-12-12T11:55:02.418Z,10.06
2016-12-12T11:56:01.659Z,9.99
2016-12-12T11:57:01.620Z,10.18
2016-12-12T11:58:01.599Z,10.2
2016-12-12T11:59:01.642Z,10.26
2016-12-12T12:00:01.643Z,10.26
2016-12-12T12:01:01.650Z,10.29
2016-12-12T12:02:01.600Z,10.22
2016-12-12T12:03:01.647Z,10.11
2016-12-12T12:04:01.671Z,10.04
2016-12-12T12:05:01.850Z,10.01
2016-12-12T12:06:01.642Z,10.06
2016-12-12T12:07:01.662Z,10.09
2016-12-12T12:08:01.592Z,9.98
2016-12-12T12:09:01.811Z,9.85
2016-12-12T12:10:01.706Z,9.99
2016-12-12T12:11:01.707Z,9.95
2016-12-12T12:12:01.612Z,10.04
2016-12-12T12:13:01.622Z,10.06
2016-12-12T12:14:01.572Z,10.06
2016-12-12T12:15:01.808Z,10.06
2016-12-12T12:16:01.647Z,10.09
2016-12-12T12:17:01.654Z,10.09
2016-12-12T12:18:01.654Z,10.09
2016-12-12T12:19:01.726Z,10.16
2016-12-12T12:20:01.786Z,10.1
2016-12-12T12:21:01.755Z,9.92
2016-12-12T12:22:01.679Z,9.89
2016-12-12T12:23:01.788Z,10.04
2016-12-12T12:24:01.617Z,9.88
2016-12-12T12:25:01.785Z,9.91
2016-12-12T12:26:01.672Z,9.8
2016-12-12T12:27:01.683Z,9.71
2016-12-12T12:28:01.646Z,9.8
2016-12-12T12:29:01.741Z,9.8
2016-12-12T12:30:01.679Z,9.71
2016-12-12T12:31:02.529Z,9.75
2016-12-12T12:32:01.660Z,9.78
2016-12-12T12:33:01.727Z,9.68
2016-12-12T12:34:01.707Z,9.78
2016-12-12T12:35:01.736Z,9.74
2016-12-12T12:36:01.691Z,9.7
2016-12-12T12:37:01.654Z,9.77
2016-12-12T12:38:01.661Z,9.71
2016-12-12T12:39:01.707Z,9.74
2016-12-12T12:40:01.646Z,9.63
2016-12-12T12:41:01.746Z,9.75
2016-12-12T12:42:01.741Z,9.71
2016-12-12T12:43:01.718Z,9.8
2016-12-12T12:44:01.775Z,9.81
2016-12-12T12:45:01.785Z,9.85
2016-12-12T12:46:01.688Z,9.92
2016-12-12T12:47:01.634Z,9.92
2016-12-12T12:48:01.724Z,9.98
2016-12-12T12:49:01.695Z,9.88
2016-12-12T12:50:01.750Z,9.88
2016-12-12T12:51:01.743Z,10.1
2016-12-12T12:52:01.690Z,10.13
2016-12-12T12:53:01.788Z,10.04
2016-12-12T12:54:01.716Z,10.06
2016-12-12T12:55:01.750Z,9.99
2016-12-12T12:56:01.718Z,9.89
2016-12-12T12:57:01.765Z,9.96
2016-12-12T12:58:01.724Z,9.92
2016-12-12T12:59:01.702Z,9.92
2016-12-12T13:00:01.743Z,9.91
2016-12-12T13:01:01.747Z,10.04
2016-12-12T13:02:01.704Z,10.06
2016-12-12T13:03:01.725Z,10.04
2016-12-12T13:04:01.788Z,9.99
2016-12-12T13:05:02.060Z,10.11
2016-12-12T13:06:01.698Z,10.07
2016-12-12T13:07:01.869Z,10.04
2016-12-12T13:08:01.797Z,10.06
2016-12-12T13:09:01.907Z,9.96
2016-12-12T13:10:01.679Z,9.77
2016-12-12T13:11:01.765Z,9.77
2016-12-12T13:12:01.734Z,9.89
2016-12-12T13:13:01.756Z,9.81
2016-12-12T13:14:01.739Z,9.89
2016-12-12T13:15:01.774Z,9.74
2016-12-12T13:16:01.735Z,9.78
2016-12-12T13:17:01.796Z,9.74
2016-12-12T13:18:01.736Z,9.77
2016-12-12T13:19:01.747Z,9.77